createdAt,value
2023-02-22T00:01:55.678Z,18.42
2023-02-22T00:04:27.099Z,18.48
2023-02-22T00:06:59.348Z,18.18
2023-02-22T00:09:30.570Z,18.51
2023-02-22T00:12:01.558Z,18.16
2023-02-22T00:14:32.133Z,18.76
2023-02-22T00:17:02.724Z,18.65
2023-02-22T00:19:33.263Z,18.20
2023-02-22T00:22:05.055Z,17.90
2023-02-22T00:24:36.805Z,17.75
2023-02-22T00:27:07.413Z,18.08
2023-02-22T00:29:38.977Z,18.28
2023-02-22T00:32:09.712Z,17.95
2023-02-22T00:34:40.425Z,18.26
2023-02-22T00:37:12.208Z,18.11
2023-02-22T00:39:42.949Z,18.14
2023-02-22T00:42:13.788Z,18.20
2023-02-22T00:44:44.460Z,17.99
2023-02-22T00:47:15.084Z,17.88
2023-02-22T00:49:45.766Z,17.77
2023-02-22T00:52:16.302Z,18.26
2023-02-22T00:54:46.881Z,18.32
2023-02-22T00:57:18.547Z,18.25
2023-02-22T00:59:49.622Z,18.03
2023-02-22T01:02:20.377Z,17.93
2023-02-22T01:04:51.102Z,17.71
2023-02-22T01:07:21.824Z,17.41
2023-02-22T01:09:53.912Z,17.67
2023-02-22T01:12:24.554Z,17.80
2023-02-22T01:14:56.737Z,17.66
2023-02-22T01:17:28.209Z,17.55
2023-02-22T01:19:58.999Z,17.65
2023-02-22T01:22:29.558Z,17.38
2023-02-22T01:25:00.168Z,16.72
2023-02-22T01:27:30.711Z,16.48
2023-02-22T01:30:01.635Z,16.73
2023-02-22T01:32:33.871Z,16.86
2023-02-22T01:35:08.759Z,16.68
2023-02-22T01:37:39.577Z,16.87
2023-02-22T01:40:13.247Z,17.18
2023-02-22T01:42:46.308Z,17.19
2023-02-22T01:45:34.926Z,17.34
2023-02-22T01:48:08.882Z,17.09
2023-02-22T01:50:42.473Z,16.87
2023-02-22T01:53:15.952Z,16.41
2023-02-22T01:55:47.994Z,16.80
2023-02-22T01:58:20.453Z,16.49
2023-02-22T02:00:51.004Z,16.41
2023-02-22T02:03:26.030Z,16.88
2023-02-22T02:06:00.889Z,16.88
2023-02-22T02:08:43.412Z,16.78
2023-02-22T02:11:15.352Z,17.23
2023-02-22T02:13:46.108Z,17.29
2023-02-22T02:16:16.677Z,17.05
2023-02-22T02:18:47.207Z,16.90
2023-02-22T02:21:37.044Z,16.84
2023-02-22T02:24:43.739Z,16.72
2023-02-22T02:27:21.011Z,16.42
2023-02-22T02:30:26.199Z,17.10
2023-02-22T02:33:18.141Z,16.64
2023-02-22T02:36:14.567Z,16.24
2023-02-22T02:39:00.305Z,16.32
2023-02-22T02:41:37.216Z,16.32
2023-02-22T02:44:31.881Z,15.64
2023-02-22T02:47:07.182Z,15.79
2023-02-22T02:49:43.768Z,15.81
2023-02-22T02:52:16.677Z,16.04
2023-02-22T02:54:48.729Z,15.79
2023-02-22T02:57:19.379Z,15.72
2023-02-22T02:59:49.959Z,15.70
2023-02-22T03:02:43.430Z,15.60
2023-02-22T03:05:33.690Z,15.83
2023-02-22T03:08:19.995Z,15.69
2023-02-22T03:11:13.127Z,15.68
2023-02-22T03:14:02.958Z,15.86
2023-02-22T03:16:42.622Z,15.72
2023-02-22T03:19:35.792Z,15.81
2023-02-22T03:22:09.267Z,15.92
2023-02-22T03:24:44.212Z,16.02
2023-02-22T03:27:21.917Z,16.05
2023-02-22T03:29:55.535Z,15.82
2023-02-22T03:32:29.038Z,15.85
2023-02-22T03:35:02.542Z,16.12
2023-02-22T03:37:37.676Z,15.74
2023-02-22T03:40:15.604Z,15.93
2023-02-22T03:42:53.010Z,15.92
2023-02-22T03:45:26.314Z,15.80
2023-02-22T03:48:02.828Z,15.83
2023-02-22T03:50:37.596Z,15.78
2023-02-22T03:53:08.499Z,15.77
2023-02-22T03:55:39.258Z,15.40
2023-02-22T03:58:12.678Z,15.30
2023-02-22T04:00:44.874Z,15.06
2023-02-22T04:03:15.528Z,15.04
2023-02-22T04:05:46.151Z,14.97
2023-02-22T04:08:17.453Z,14.96
2023-02-22T04:10:48.088Z,15.09
2023-02-22T04:13:18.705Z,15.31
2023-02-22T04:15:49.324Z,15.47
2023-02-22T04:18:20.030Z,15.62
2023-02-22T04:20:53.377Z,15.66
2023-02-22T04:23:24.272Z,15.38
2023-02-22T04:25:54.933Z,15.53
2023-02-22T04:28:25.520Z,15.88
2023-02-22T04:30:56.156Z,15.92
2023-02-22T04:33:27.845Z,15.75
2023-02-22T04:36:01.354Z,15.85
2023-02-22T04:38:31.877Z,15.29
2023-02-22T04:41:02.326Z,15.38
2023-02-22T04:43:32.915Z,15.27
2023-02-22T04:46:04.750Z,15.93
2023-02-22T04:48:35.344Z,15.90
2023-02-22T04:51:08.685Z,15.63
2023-02-22T04:53:40.484Z,15.94
2023-02-22T04:56:12.042Z,15.89
2023-02-22T04:58:42.718Z,15.95
2023-02-22T05:01:13.293Z,15.62
2023-02-22T05:03:44.369Z,15.63
2023-02-22T05:06:15.044Z,15.57
2023-02-22T05:08:45.729Z,14.98
2023-02-22T05:11:16.673Z,15.17
2023-02-22T05:13:47.556Z,15.37
2023-02-22T05:16:18.484Z,15.62
2023-02-22T05:18:49.728Z,15.86
2023-02-22T05:21:20.240Z,15.81
2023-02-22T05:23:50.848Z,15.62
2023-02-22T05:26:22.378Z,15.72
2023-02-22T05:28:54.051Z,15.81
2023-02-22T05:31:24.658Z,15.91
2023-02-22T05:33:56.457Z,16.00
2023-02-22T05:36:30.099Z,15.47
2023-02-22T05:39:03.754Z,15.57
2023-02-22T05:41:36.468Z,15.72
2023-02-22T05:44:13.188Z,15.62
2023-02-22T05:46:45.520Z,15.46
2023-02-22T05:49:20.930Z,15.79
2023-02-22T05:51:54.613Z,16.19
2023-02-22T05:54:28.158Z,15.70
2023-02-22T05:57:01.927Z,15.87
2023-02-22T05:59:35.666Z,15.73
2023-02-22T06:02:09.361Z,15.72
2023-02-22T06:04:42.531Z,15.49
2023-02-22T06:07:17.977Z,15.87
2023-02-22T06:09:49.264Z,15.71
2023-02-22T06:12:24.733Z,15.68
2023-02-22T06:15:03.371Z,15.30
2023-02-22T06:17:38.621Z,15.77
2023-02-22T06:20:18.086Z,16.09
2023-02-22T06:22:58.881Z,15.87
2023-02-22T06:25:34.675Z,16.14
2023-02-22T06:28:10.130Z,16.36
2023-02-22T06:30:48.442Z,16.13
2023-02-22T06:33:22.673Z,16.40
2023-02-22T06:35:54.775Z,15.81
2023-02-22T06:38:29.074Z,15.83
2023-02-22T06:41:05.283Z,16.02
2023-02-22T06:43:37.109Z,16.03
2023-02-22T06:46:17.181Z,16.13
2023-02-22T06:48:48.475Z,16.20
2023-02-22T06:51:24.124Z,16.12
2023-02-22T06:53:57.637Z,15.88
2023-02-22T06:56:30.557Z,15.29
2023-02-22T06:59:04.385Z,15.70
2023-02-22T07:01:36.072Z,15.67
2023-02-22T07:04:09.111Z,15.95
2023-02-22T07:06:41.725Z,16.02
2023-02-22T07:09:14.321Z,16.14
2023-02-22T07:11:47.889Z,15.91
2023-02-22T07:14:21.273Z,15.90
2023-02-22T07:16:58.502Z,16.14
2023-02-22T07:19:29.659Z,16.18
2023-02-22T07:22:02.056Z,16.50
2023-02-22T07:24:35.850Z,15.81
2023-02-22T07:30:01.389Z,16.36
2023-02-22T07:32:37.287Z,16.20
2023-02-22T07:35:11.876Z,16.10
2023-02-22T07:37:47.960Z,15.62
2023-02-22T07:40:39.808Z,16.42
2023-02-22T07:43:22.156Z,16.51
2023-02-22T07:45:57.206Z,16.51
2023-02-22T07:48:31.715Z,16.50
2023-02-22T07:51:04.140Z,16.42
2023-02-22T07:53:37.950Z,16.70
2023-02-22T07:56:10.391Z,16.64
2023-02-22T07:58:40.941Z,16.39
2023-02-22T08:01:12.634Z,16.30
2023-02-22T08:03:43.183Z,16.43
2023-02-22T08:06:13.697Z,16.64
2023-02-22T08:08:44.182Z,16.32
2023-02-22T08:11:15.242Z,16.03
2023-02-22T08:13:45.924Z,16.36
2023-02-22T08:16:16.483Z,16.82
2023-02-22T08:18:47.145Z,16.59
2023-02-22T08:21:19.090Z,16.56
2023-02-22T08:23:55.443Z,16.43
2023-02-22T08:26:25.905Z,17.10
2023-02-22T08:28:57.168Z,17.06
2023-02-22T08:31:27.674Z,17.16
2023-02-22T08:33:58.764Z,16.93
2023-02-22T08:36:29.826Z,17.22
2023-02-22T08:39:00.706Z,17.16
2023-02-22T08:41:31.241Z,17.30
2023-02-22T08:44:02.744Z,17.08
2023-02-22T08:46:33.210Z,16.85
2023-02-22T08:49:04.505Z,16.58
2023-02-22T08:51:38.519Z,17.28
2023-02-22T08:54:08.998Z,17.42
2023-02-22T08:56:39.629Z,16.90
2023-02-22T08:59:10.155Z,17.60
2023-02-22T09:01:40.742Z,17.86
2023-02-22T09:04:11.460Z,18.11
2023-02-22T09:06:46.874Z,17.17
2023-02-22T09:09:18.887Z,17.78
2023-02-22T09:11:53.211Z,17.52
2023-02-22T09:14:23.811Z,18.34
2023-02-22T09:16:54.348Z,18.59
2023-02-22T09:19:25.046Z,18.36
2023-02-22T09:21:56.928Z,18.82
2023-02-22T09:24:27.460Z,18.19
2023-02-22T09:26:59.512Z,18.77
2023-02-22T09:29:30.201Z,18.48
2023-02-22T09:32:02.142Z,18.64
2023-02-22T09:34:34.344Z,18.59
2023-02-22T09:37:06.399Z,18.58
2023-02-22T09:39:37.953Z,18.15
2023-02-22T09:42:14.302Z,18.09
2023-02-22T09:45:06.094Z,18.51
2023-02-22T09:47:43.253Z,18.97
2023-02-22T09:50:16.757Z,18.89
2023-02-22T09:53:08.309Z,19.67
2023-02-22T09:55:41.697Z,20.55
2023-02-22T09:58:27.160Z,23.73
2023-02-22T10:00:59.842Z,25.46
2023-02-22T10:03:51.200Z,26.36
2023-02-22T10:06:24.883Z,27.77
2023-02-22T10:08:58.370Z,29.37
2023-02-22T10:11:37.790Z,29.42
2023-02-22T10:14:43.761Z,29.90
2023-02-22T10:17:27.514Z,30.43
2023-02-22T10:20:07.013Z,31.52
2023-02-22T10:22:40.391Z,31.08
2023-02-22T10:25:18.296Z,30.38
2023-02-22T10:27:57.863Z,30.38
2023-02-22T10:30:33.763Z,31.18
2023-02-22T10:33:06.326Z,31.47
2023-02-22T10:35:40.614Z,32.39
2023-02-22T10:38:17.101Z,32.14
2023-02-22T10:40:54.997Z,31.22
2023-02-22T10:43:26.507Z,31.98
2023-02-22T10:46:01.701Z,32.76
2023-02-22T10:48:35.701Z,34.04
2023-02-22T10:51:08.816Z,32.70
2023-02-22T10:53:40.329Z,31.56
2023-02-22T10:56:17.151Z,31.28
2023-02-22T10:58:50.777Z,28.99
2023-02-22T11:01:37.860Z,26.28
2023-02-22T11:04:22.768Z,25.45
2023-02-22T11:07:12.708Z,25.85
2023-02-22T11:09:51.790Z,26.17
2023-02-22T11:12:32.961Z,25.13
2023-02-22T11:15:25.719Z,24.29
2023-02-22T11:18:00.418Z,23.79
2023-02-22T11:20:34.979Z,24.29
2023-02-22T11:23:08.438Z,27.64
2023-02-22T11:25:42.660Z,28.76
2023-02-22T11:28:18.815Z,29.11
2023-02-22T11:30:52.525Z,30.04
2023-02-22T11:33:25.968Z,29.72
2023-02-22T11:36:06.494Z,30.29
2023-02-22T11:38:39.501Z,29.98
2023-02-22T11:41:23.196Z,29.21
2023-02-22T11:43:56.015Z,28.43
2023-02-22T11:46:29.481Z,29.25
2023-02-22T11:49:05.700Z,26.78
2023-02-22T11:52:12.722Z,25.72
2023-02-22T11:54:58.990Z,25.39
2023-02-22T11:57:42.625Z,25.06
2023-02-22T12:00:20.364Z,24.39
2023-02-22T12:02:59.932Z,23.77
2023-02-22T12:05:51.693Z,24.01
2023-02-22T12:08:41.229Z,23.69
2023-02-22T12:11:20.402Z,23.72
2023-02-22T12:14:19.334Z,24.92
2023-02-22T12:17:23.629Z,24.71
2023-02-22T12:20:13.630Z,24.77
2023-02-22T12:22:50.668Z,25.01
2023-02-22T12:25:30.064Z,24.78
2023-02-22T12:28:15.612Z,25.19
2023-02-22T12:30:41.811Z,26.49
2023-02-22T12:33:21.739Z,25.77
2023-02-22T12:35:58.140Z,25.23
2023-02-22T12:38:40.319Z,26.10
2023-02-22T12:41:19.832Z,26.33
2023-02-22T12:44:19.450Z,26.44
2023-02-22T12:46:57.078Z,27.65
2023-02-22T12:49:36.524Z,27.27
2023-02-22T12:52:21.272Z,27.27
2023-02-22T12:54:48.289Z,26.68
2023-02-22T12:57:45.706Z,25.87
2023-02-22T13:00:31.629Z,24.42
2023-02-22T13:03:17.969Z,23.92
2023-02-22T13:05:51.264Z,23.92
2023-02-22T13:08:27.567Z,24.17
2023-02-22T13:11:13.023Z,23.35
2023-02-22T13:14:03.203Z,23.11
2023-02-22T13:16:42.327Z,23.77
2023-02-22T13:19:31.564Z,23.46
2023-02-22T13:22:25.662Z,24.60
2023-02-22T13:25:03.262Z,25.00
2023-02-22T13:27:48.869Z,24.61
2023-02-22T13:30:28.252Z,24.94
2023-02-22T13:33:04.646Z,24.96
2023-02-22T13:35:44.226Z,25.02
2023-02-22T13:38:23.658Z,25.20
2023-02-22T13:41:17.223Z,25.17
2023-02-22T13:44:02.743Z,24.87
2023-02-22T13:46:52.743Z,24.14
2023-02-22T13:49:32.172Z,24.49
2023-02-22T13:52:12.460Z,24.10
2023-02-22T13:54:53.006Z,24.30
2023-02-22T13:57:32.761Z,24.30
2023-02-22T14:00:21.923Z,24.56
2023-02-22T14:03:09.064Z,23.71
2023-02-22T14:05:45.600Z,23.68
2023-02-22T14:08:26.287Z,23.37
2023-02-22T14:10:59.669Z,22.62
2023-02-22T14:13:32.406Z,22.83
2023-02-22T14:16:05.920Z,22.16
2023-02-22T14:18:45.414Z,22.24
2023-02-22T14:21:22.928Z,22.20
2023-02-22T14:23:56.073Z,21.83
2023-02-22T14:26:35.773Z,22.03
2023-02-22T14:29:12.432Z,22.62
2023-02-22T14:31:50.479Z,22.17
2023-02-22T14:34:43.476Z,22.03
2023-02-22T14:37:24.707Z,22.16
2023-02-22T14:40:05.570Z,21.92
2023-02-22T14:42:39.990Z,22.11
2023-02-22T14:45:13.468Z,22.27
2023-02-22T14:47:54.561Z,22.23
2023-02-22T14:50:28.117Z,21.83
2023-02-22T14:53:07.107Z,21.79
2023-02-22T14:55:40.632Z,21.58
2023-02-22T14:58:19.983Z,21.47
2023-02-22T15:00:57.370Z,21.34
2023-02-22T15:03:35.936Z,21.18
2023-02-22T15:06:19.449Z,21.34
2023-02-22T15:08:52.491Z,21.05
2023-02-22T15:11:33.620Z,20.91
2023-02-22T15:14:12.273Z,20.97
2023-02-22T15:16:42.341Z,20.83
2023-02-22T15:19:13.723Z,20.20
2023-02-22T15:21:49.556Z,20.17
2023-02-22T15:24:25.882Z,20.05
2023-02-22T15:27:02.215Z,19.77
2023-02-22T15:29:39.246Z,19.33
2023-02-22T15:32:31.863Z,19.31
2023-02-22T15:35:30.233Z,19.15
2023-02-22T15:38:06.989Z,19.03
2023-02-22T15:40:40.380Z,19.14
2023-02-22T15:43:20.171Z,17.89
2023-02-22T15:45:51.679Z,18.23
2023-02-22T15:48:23.581Z,18.23
2023-02-22T15:51:07.557Z,18.32
2023-02-22T15:53:44.087Z,17.93
2023-02-22T15:56:17.626Z,17.93
2023-02-22T15:58:49.662Z,18.26
2023-02-22T16:01:21.634Z,18.24
2023-02-22T16:03:58.070Z,17.50
2023-02-22T16:06:42.848Z,17.83
2023-02-22T16:09:29.908Z,17.34
2023-02-22T16:12:12.339Z,17.30
2023-02-22T16:14:45.059Z,16.88
2023-02-22T16:17:42.697Z,17.42
2023-02-22T16:20:21.591Z,16.94
2023-02-22T16:22:52.689Z,16.86
2023-02-22T16:25:35.248Z,16.54
2023-02-22T16:28:26.880Z,16.59
2023-02-22T16:31:01.710Z,16.11
2023-02-22T16:33:34.304Z,15.93
2023-02-22T16:36:08.386Z,16.13
2023-02-22T16:38:44.184Z,16.21
2023-02-22T16:41:17.632Z,16.01
2023-02-22T16:43:51.595Z,15.89
2023-02-22T16:46:24.935Z,15.28
2023-02-22T16:48:56.017Z,15.74
2023-02-22T16:51:28.902Z,15.88
2023-02-22T16:54:00.188Z,15.24
2023-02-22T16:56:33.093Z,15.39
2023-02-22T16:59:06.569Z,15.53
2023-02-22T17:01:38.417Z,15.32
2023-02-22T17:04:20.886Z,15.06
2023-02-22T17:06:51.732Z,15.37
2023-02-22T17:09:22.335Z,15.45
2023-02-22T17:11:54.341Z,15.13
2023-02-22T17:14:27.572Z,15.53
2023-02-22T17:16:58.496Z,15.42
2023-02-22T17:19:29.256Z,15.35
2023-02-22T17:21:59.777Z,15.35
2023-02-22T17:24:30.333Z,15.00
2023-02-22T17:27:02.261Z,14.77
2023-02-22T17:29:32.753Z,15.16
2023-02-22T17:32:03.645Z,15.33
2023-02-22T17:34:34.182Z,15.74
2023-02-22T17:37:05.280Z,15.40
2023-02-22T17:39:36.847Z,15.44
2023-02-22T17:42:08.475Z,15.47
2023-02-22T17:44:38.958Z,15.29
2023-02-22T17:47:09.508Z,15.41
2023-02-22T17:49:40.081Z,15.09
2023-02-22T17:52:12.232Z,15.27
2023-02-22T17:54:43.240Z,15.22
2023-02-22T17:57:13.823Z,14.83
2023-02-22T17:59:45.485Z,15.04
2023-02-22T18:02:16.004Z,14.75
2023-02-22T18:04:46.691Z,15.10
2023-02-22T18:07:18.744Z,14.83
2023-02-22T18:09:49.342Z,15.19
2023-02-22T18:12:19.775Z,15.39
2023-02-22T18:14:50.349Z,15.15
2023-02-22T18:17:20.878Z,15.10
2023-02-22T18:19:52.502Z,15.33
2023-02-22T18:22:23.348Z,15.32
2023-02-22T18:24:58.412Z,14.88
2023-02-22T18:27:28.535Z,15.25
2023-02-22T18:29:59.120Z,14.41
2023-02-22T18:32:32.154Z,14.43
2023-02-22T18:35:04.171Z,14.60
2023-02-22T18:37:36.310Z,15.24
2023-02-22T18:40:09.697Z,14.77
2023-02-22T18:42:41.717Z,14.57
2023-02-22T18:45:12.342Z,14.77
2023-02-22T18:47:44.295Z,14.41
2023-02-22T18:50:17.387Z,14.48
2023-02-22T18:52:49.104Z,14.68
2023-02-22T18:55:21.606Z,14.34
2023-02-22T18:57:52.153Z,14.66
2023-02-22T19:00:27.336Z,14.75
2023-02-22T19:02:58.473Z,14.84
2023-02-22T19:05:29.042Z,14.55
2023-02-22T19:07:59.599Z,14.63
2023-02-22T19:10:30.295Z,14.75
2023-02-22T19:13:01.992Z,14.35
2023-02-22T19:15:33.085Z,13.82
2023-02-22T19:18:03.684Z,14.07
2023-02-22T19:20:34.257Z,14.35
2023-02-22T19:23:04.738Z,13.63
2023-02-22T19:25:35.308Z,14.16
2023-02-22T19:28:06.084Z,13.54
2023-02-22T19:30:37.784Z,13.45
2023-02-22T19:33:08.407Z,13.49
2023-02-22T19:35:40.817Z,13.52
2023-02-22T19:38:11.491Z,13.56
2023-02-22T19:40:42.134Z,13.52
2023-02-22T19:43:14.395Z,13.56
2023-02-22T19:45:44.995Z,13.77
2023-02-22T19:48:15.666Z,12.82
2023-02-22T19:50:50.556Z,13.10
2023-02-22T19:53:21.121Z,13.25
2023-02-22T19:55:51.654Z,13.47
2023-02-22T19:58:22.241Z,12.89
2023-02-22T20:00:52.987Z,12.93
2023-02-22T20:03:25.250Z,13.15
2023-02-22T20:05:58.777Z,13.84
2023-02-22T20:08:29.369Z,13.62
2023-02-22T20:11:01.261Z,13.49
2023-02-22T20:13:32.277Z,13.25
2023-02-22T20:16:02.875Z,13.34
2023-02-22T20:18:33.519Z,12.96
2023-02-22T20:21:10.141Z,13.34
2023-02-22T20:23:43.515Z,13.60
2023-02-22T20:26:16.984Z,13.86
2023-02-22T20:28:48.297Z,13.32
2023-02-22T20:31:20.515Z,13.52
2023-02-22T20:33:56.459Z,13.76
2023-02-22T20:36:28.910Z,13.71
2023-02-22T20:39:01.763Z,13.50
2023-02-22T20:41:36.443Z,13.03
2023-02-22T20:44:08.811Z,13.11
2023-02-22T20:46:40.109Z,13.18
2023-02-22T20:49:12.906Z,13.44
2023-02-22T20:51:43.583Z,13.40
2023-02-22T20:54:14.768Z,13.43
2023-02-22T20:56:47.201Z,13.28
2023-02-22T20:59:19.865Z,13.03
2023-02-22T21:01:52.307Z,13.50
2023-02-22T21:04:24.402Z,12.94
2023-02-22T21:06:55.196Z,13.19
2023-02-22T21:09:25.832Z,13.06
2023-02-22T21:11:56.916Z,13.35
2023-02-22T21:14:27.552Z,13.38
2023-02-22T21:16:58.351Z,13.36
2023-02-22T21:19:31.177Z,12.99
2023-02-22T21:22:04.665Z,13.21
2023-02-22T21:24:36.579Z,12.68
2023-02-22T21:27:07.394Z,13.03
2023-02-22T21:29:38.136Z,12.96
2023-02-22T21:32:10.963Z,12.90
2023-02-22T21:34:42.417Z,13.11
2023-02-22T21:37:14.761Z,12.97
2023-02-22T21:39:47.144Z,13.04
2023-02-22T21:42:17.881Z,13.26
2023-02-22T21:44:48.684Z,13.19
2023-02-22T21:47:19.325Z,13.32
2023-02-22T21:49:52.907Z,12.88
2023-02-22T21:52:25.017Z,12.80
2023-02-22T21:54:55.588Z,12.74
2023-02-22T21:57:26.376Z,12.71
2023-02-22T21:59:56.889Z,12.85
2023-02-22T22:02:29.042Z,12.83
2023-02-22T22:04:59.586Z,12.96
2023-02-22T22:07:30.231Z,13.08
2023-02-22T22:10:00.788Z,12.80
2023-02-22T22:12:39.164Z,13.04
2023-02-22T22:15:04.780Z,12.90
2023-02-22T22:17:35.981Z,13.21
2023-02-22T22:20:09.208Z,12.86
2023-02-22T22:22:41.692Z,13.17
2023-02-22T22:25:12.861Z,13.05
2023-02-22T22:27:45.349Z,12.45
2023-02-22T22:30:16.997Z,12.81
2023-02-22T22:32:47.632Z,12.62
2023-02-22T22:35:19.413Z,13.09
2023-02-22T22:37:51.537Z,13.04
2023-02-22T22:40:22.121Z,12.68
2023-02-22T22:42:53.421Z,13.02
2023-02-22T22:45:24.000Z,13.32
2023-02-22T22:47:55.046Z,12.87
2023-02-22T22:50:26.629Z,12.80
2023-02-22T22:52:58.879Z,12.75
2023-02-22T22:55:29.513Z,12.81
2023-02-22T22:58:00.078Z,12.69
2023-02-22T23:00:32.286Z,12.93
2023-02-22T23:03:04.605Z,13.15
2023-02-22T23:05:42.568Z,13.04
2023-02-22T23:08:13.431Z,13.06
2023-02-22T23:10:44.271Z,12.75
2023-02-22T23:13:15.874Z,12.55
2023-02-22T23:15:52.951Z,12.73
2023-02-22T23:18:23.609Z,12.75
2023-02-22T23:20:55.461Z,12.55
2023-02-22T23:23:28.031Z,12.51
2023-02-22T23:26:10.046Z,12.55
2023-02-22T23:28:44.437Z,12.57
2023-02-22T23:31:18.347Z,12.39
2023-02-22T23:33:51.061Z,12.29
2023-02-22T23:36:23.135Z,13.10
2023-02-22T23:38:54.424Z,12.43
2023-02-22T23:41:26.567Z,12.30
2023-02-22T23:43:58.207Z,12.45
2023-02-22T23:46:30.364Z,13.07
2023-02-22T23:49:03.255Z,12.25
2023-02-22T23:51:36.017Z,12.52
2023-02-22T23:54:08.358Z,12.85
2023-02-22T23:56:40.463Z,12.63
2023-02-22T23:59:12.806Z,12.64
